Time;durP1;ratioP1;P1;durP2;ratioP2;P2;SDS_P1;SDS_P2;PMS_P1;PMS_P2;Temp;Humidity;BMP_temperature;BMP_pressure;BME280_temperature;BME280_humidity;BME280_pressure;Samples;Min_cycle;Max_cycle;Signal;HPM_P1;HPM_P2
2023/06/29 00:01:04;;;;;;;0.00;0.00;;;;;;;18.20;96.73;100370.09;4961582;28;20027;-76
2023/06/29 00:03:31;;;;;;;0.00;0.00;;;;;;;18.20;96.32;100367.31;4977674;28;20175;-76
2023/06/29 00:05:58;;;;;;;0.00;0.00;;;;;;;18.22;96.51;100373.34;4988076;28;20030;-76
2023/06/29 00:08:34;;;;;;;0.00;0.00;;;;;;;18.18;97.07;100369.59;4960174;28;20038;-77
2023/06/29 00:10:59;;;;;;;0.00;0.00;;;;;;;18.16;96.87;100373.81;4978131;28;20120;-75
2023/06/29 00:14:07;;;;;;;0.00;0.00;;;;;;;18.09;97.11;100368.72;5007459;28;20438;-83
2023/06/29 00:16:33;;;;;;;0.00;0.00;;;;;;;17.70;97.88;100337.09;5016628;28;20057;-84
2023/06/29 00:19:00;;;;;;;0.00;0.00;;;;;;;17.52;97.97;100342.53;4992439;28;20045;-77
2023/06/29 00:21:28;;;;;;;0.00;0.00;;;;;;;17.46;98.79;100374.16;4993154;28;20119;-77
2023/06/29 00:23:53;;;;;;;0.00;0.00;;;;;;;17.21;100.00;100361.78;5008658;28;20026;-75
2023/06/29 00:26:19;;;;;;;0.00;0.00;;;;;;;17.08;100.00;100364.28;5006322;28;20076;-75
2023/06/29 00:28:44;;;;;;;0.00;0.00;;;;;;;17.00;100.00;100350.41;5011462;28;20029;-76
2023/06/29 00:31:10;;;;;;;0.00;0.00;;;;;;;16.98;100.00;100369.22;4985418;28;20030;-75
2023/06/29 00:33:35;;;;;;;0.00;0.00;;;;;;;16.88;100.00;100360.03;5010566;28;20117;-74
2023/06/29 00:36:01;;;;;;;0.00;0.00;;;;;;;16.73;100.00;100355.63;5006961;28;20423;-75
2023/06/29 00:38:26;;;;;;;0.00;0.00;;;;;;;16.72;100.00;100367.00;5006001;28;20024;-75
2023/06/29 00:40:52;;;;;;;0.00;0.00;;;;;;;16.61;100.00;100360.03;4968254;28;20041;-74
2023/06/29 00:43:17;;;;;;;0.00;0.00;;;;;;;16.54;100.00;100361.28;4989744;28;21279;-75
2023/06/29 00:45:43;;;;;;;0.00;0.00;;;;;;;16.45;100.00;100346.56;4989081;28;20029;-75
2023/06/29 00:48:09;;;;;;;0.00;0.00;;;;;;;16.34;100.00;100334.06;4984342;28;20607;-75
2023/06/29 00:50:35;;;;;;;0.00;0.00;;;;;;;16.47;100.00;100355.34;4993448;28;20062;-76
2023/06/29 00:53:01;;;;;;;0.00;0.00;;;;;;;16.48;100.00;100351.44;5007629;28;20026;-76
2023/06/29 00:55:27;;;;;;;0.00;0.00;;;;;;;16.43;100.00;100340.53;5002018;28;20028;-76
2023/06/29 00:57:53;;;;;;;0.00;0.00;;;;;;;16.47;100.00;100349.84;4984665;28;20022;-76
2023/06/29 01:00:19;;;;;;;0.00;0.00;;;;;;;16.49;100.00;100347.56;4987470;28;20092;-76
2023/06/29 01:02:44;;;;;;;0.00;0.00;;;;;;;16.50;100.00;100346.47;5010483;28;20042;-76
2023/06/29 01:05:12;;;;;;;0.00;0.00;;;;;;;16.51;100.00;100342.56;5001467;28;20029;-75
2023/06/29 01:07:49;;;;;;;0.00;0.00;;;;;;;16.51;100.00;100348.06;4991343;28;20096;-75
2023/06/29 01:10:18;;;;;;;0.00;0.00;;;;;;;16.45;100.00;100332.75;4997815;28;20388;-75
2023/06/29 01:12:46;;;;;;;0.00;0.00;;;;;;;16.47;100.00;100341.56;4992191;28;20041;-75
2023/06/29 01:15:21;;;;;;;0.00;0.00;;;;;;;16.44;100.00;100331.13;4989482;28;20079;-75
2023/06/29 01:17:50;;;;;;;0.00;0.00;;;;;;;16.46;100.00;100337.16;5024140;28;20683;-76
2023/06/29 01:20:16;;;;;;;0.00;0.00;;;;;;;16.48;100.00;100339.59;4981298;28;20404;-74
2023/06/29 01:23:07;;;;;;;0.00;0.00;;;;;;;16.47;100.00;100336.03;4973647;28;20030;-75
2023/06/29 01:25:35;;;;;;;0.00;0.00;;;;;;;16.51;100.00;100328.75;4980574;28;20446;-75
2023/06/29 01:28:05;;;;;;;0.00;0.00;;;;;;;16.50;100.00;100324.38;4984473;28;20822;-75
2023/06/29 01:30:31;;;;;;;0.00;0.00;;;;;;;16.56;100.00;100338.91;4973746;28;20042;-74
2023/06/29 01:32:57;;;;;;;0.00;0.00;;;;;;;16.49;100.00;100331.03;4974159;28;20888;-75
2023/06/29 01:35:22;;;;;;;0.00;0.00;;;;;;;16.45;100.00;100324.47;4991557;28;20026;-77
2023/06/29 01:38:08;;;;;;;0.00;0.00;;;;;;;16.50;100.00;100334.59;5011645;28;20477;-75
2023/06/29 01:40:37;;;;;;;0.00;0.00;;;;;;;16.49;100.00;100327.44;4995655;28;20022;-76
2023/06/29 01:43:04;;;;;;;0.00;0.00;;;;;;;16.50;100.00;100326.31;5001690;28;20365;-75
2023/06/29 01:45:31;;;;;;;0.00;0.00;;;;;;;16.55;100.00;100331.72;4960427;28;20029;-75
2023/06/29 01:47:57;;;;;;;0.00;0.00;;;;;;;16.62;100.00;100334.06;4996913;28;20838;-75
2023/06/29 01:50:24;;;;;;;0.00;0.00;;;;;;;16.58;100.00;100318.13;4980443;28;20034;-75
2023/06/29 01:52:49;;;;;;;0.00;0.00;;;;;;;16.66;100.00;100327.63;4982951;28;20440;-74
2023/06/29 01:55:18;;;;;;;0.00;0.00;;;;;;;16.66;100.00;100329.56;4997481;28;20061;-75
2023/06/29 01:57:43;;;;;;;0.00;0.00;;;;;;;16.66;100.00;100326.78;5004638;28;20029;-75
2023/06/29 02:00:10;;;;;;;0.00;0.00;;;;;;;16.75;100.00;100338.75;4985348;28;20036;-75
2023/06/29 02:02:35;;;;;;;0.00;0.00;;;;;;;16.76;100.00;100337.63;5023797;28;20033;-75
2023/06/29 02:05:00;;;;;;;0.00;0.00;;;;;;;16.77;100.00;100328.22;4971674;28;20392;-76
2023/06/29 02:07:26;;;;;;;0.00;0.00;;;;;;;16.75;100.00;100324.97;4987953;28;20177;-76
2023/06/29 02:09:51;;;;;;;0.00;0.00;;;;;;;16.73;100.00;100324.44;4959647;28;20042;-76
2023/06/29 02:12:17;;;;;;;0.00;0.00;;;;;;;16.73;100.00;100318.91;4991668;28;20030;-77
2023/06/29 02:14:43;;;;;;;0.00;0.00;;;;;;;16.77;100.00;100328.22;5008943;28;20026;-76
2023/06/29 02:17:08;;;;;;;0.00;0.00;;;;;;;16.74;100.00;100331.59;5012740;28;20142;-74
2023/06/29 02:19:34;;;;;;;0.00;0.00;;;;;;;16.74;100.00;100320.56;4986260;28;20018;-74
2023/06/29 02:21:59;;;;;;;0.00;0.00;;;;;;;16.73;100.00;100319.75;5000467;28;20038;-75
2023/06/29 02:24:25;;;;;;;0.00;0.00;;;;;;;16.67;100.00;100311.88;4967352;28;20358;-76
2023/06/29 02:26:50;;;;;;;0.00;0.00;;;;;;;16.68;100.00;100314.31;5003427;28;20030;-73
2023/06/29 02:29:16;;;;;;;0.00;0.00;;;;;;;16.72;100.00;100320.06;5004178;28;20393;-74
2023/06/29 02:31:41;;;;;;;0.00;0.00;;;;;;;16.75;100.00;100316.66;4971707;28;20731;-75
2023/06/29 02:34:07;;;;;;;0.00;0.00;;;;;;;16.78;100.00;100327.09;4971460;28;20026;-75
2023/06/29 02:36:32;;;;;;;0.00;0.00;;;;;;;16.71;100.00;100305.41;4985670;28;20030;-75
2023/06/29 02:38:57;;;;;;;0.00;0.00;;;;;;;16.73;100.00;100325.28;4987246;28;20454;-74
2023/06/29 02:41:23;;;;;;;0.00;0.00;;;;;;;16.71;100.00;100310.13;4988919;28;20030;-75
2023/06/29 02:43:48;;;;;;;0.00;0.00;;;;;;;16.65;100.00;100317.72;5013645;28;20041;-75
2023/06/29 02:46:14;;;;;;;0.00;0.00;;;;;;;16.68;100.00;100328.13;4956943;28;20033;-74
2023/06/29 02:48:39;;;;;;;0.00;0.00;;;;;;;16.64;100.00;100320.78;4994115;28;20030;-75
2023/06/29 02:51:05;;;;;;;0.00;0.00;;;;;;;16.65;100.00;100341.75;4971413;28;20501;-74
2023/06/29 02:53:30;;;;;;;0.00;0.00;;;;;;;16.60;100.00;100344.59;5003792;28;20523;-74
2023/06/29 02:55:56;;;;;;;0.00;0.00;;;;;;;16.41;100.00;100320.69;5003074;28;20030;-75
2023/06/29 02:58:24;;;;;;;0.00;0.00;;;;;;;16.45;99.76;100334.72;4985172;28;20030;-76
2023/06/29 03:00:54;;;;;;;0.00;0.00;;;;;;;16.40;98.76;100339.19;5009612;28;20038;-77
2023/06/29 03:03:22;;;;;;;0.00;0.00;;;;;;;16.33;97.91;100329.72;4979041;28;20040;-76
2023/06/29 03:05:48;;;;;;;0.00;0.00;;;;;;;16.22;97.02;100331.84;4982351;28;20026;-76
2023/06/29 03:08:13;;;;;;;0.00;0.00;;;;;;;16.20;97.07;100334.91;5003672;28;20033;-75
2023/06/29 03:10:38;;;;;;;0.00;0.00;;;;;;;16.15;96.85;100337.78;5003726;28;20034;-76
2023/06/29 03:13:04;;;;;;;0.00;0.00;;;;;;;16.17;96.17;100341.03;4983268;28;20112;-75
2023/06/29 03:15:29;;;;;;;0.00;0.00;;;;;;;16.23;95.79;100355.56;5005973;28;20025;-76
2023/06/29 03:18:02;;;;;;;0.00;0.00;;;;;;;16.13;95.26;100330.91;4977538;28;20050;-76
2023/06/29 03:20:28;;;;;;;0.00;0.00;;;;;;;16.18;95.61;100348.19;4985309;28;20392;-75
2023/06/29 03:22:55;;;;;;;0.00;0.00;;;;;;;16.06;95.46;100345.09;4962733;28;20040;-75
2023/06/29 03:25:23;;;;;;;0.00;0.00;;;;;;;16.04;94.90;100341.84;4990423;28;20018;-76
2023/06/29 03:27:49;;;;;;;0.00;0.00;;;;;;;16.01;94.82;100345.22;4985367;28;20120;-76
2023/06/29 03:30:15;;;;;;;0.00;0.00;;;;;;;16.07;94.38;100362.50;4994476;28;20393;-77
2023/06/29 03:32:40;;;;;;;0.00;0.00;;;;;;;15.97;93.99;100361.53;5004084;28;20026;-77
2023/06/29 03:35:07;;;;;;;0.00;0.00;;;;;;;15.84;93.77;100360.41;4948894;28;20032;-76
2023/06/29 03:37:33;;;;;;;0.00;0.00;;;;;;;15.93;93.97;100379.00;4990502;28;20737;-77
2023/06/29 03:40:01;;;;;;;0.00;0.00;;;;;;;15.82;93.88;100368.16;4974771;28;20065;-76
2023/06/29 03:42:26;;;;;;;0.00;0.00;;;;;;;15.85;93.98;100381.31;4982729;28;20044;-76
2023/06/29 03:44:54;;;;;;;0.00;0.00;;;;;;;15.82;94.31;100384.69;4970522;28;20120;-78
2023/06/29 03:47:19;;;;;;;0.00;0.00;;;;;;;15.70;94.61;100371.38;4978989;28;20030;-79
2023/06/29 03:49:45;;;;;;;0.00;0.00;;;;;;;15.61;94.56;100359.41;4941524;28;1227137;-76
2023/06/29 03:52:10;;;;;;;0.00;0.00;;;;;;;15.59;95.11;100374.59;4948037;28;20039;-74
2023/06/29 03:54:35;;;;;;;0.00;0.00;;;;;;;15.40;95.40;100367.16;4968762;28;20031;-75
2023/06/29 03:57:02;;;;;;;0.00;0.00;;;;;;;15.35;95.81;100375.53;4970319;28;20436;-76
2023/06/29 03:59:30;;;;;;;0.00;0.00;;;;;;;15.28;96.11;100358.56;5010010;28;20559;-75
2023/06/29 04:01:58;;;;;;;0.00;0.00;;;;;;;15.29;96.26;100360.19;4963481;28;20430;-76
2023/06/29 04:04:23;;;;;;;0.00;0.00;;;;;;;15.23;96.00;100344.84;5002747;28;20090;-75
2023/06/29 04:06:54;;;;;;;0.00;0.00;;;;;;;15.37;95.76;100365.00;4980537;28;20030;-75
2023/06/29 04:09:19;;;;;;;0.00;0.00;;;;;;;15.37;95.58;100367.75;4983220;28;20027;-76
2023/06/29 04:11:44;;;;;;;0.00;0.00;;;;;;;15.33;95.55;100367.56;4972856;28;20380;-76
2023/06/29 04:14:10;;;;;;;0.00;0.00;;;;;;;15.30;95.25;100367.31;4986758;28;20030;-75
2023/06/29 04:16:35;;;;;;;0.00;0.00;;;;;;;15.30;95.77;100375.59;4964569;28;20350;-77
2023/06/29 04:19:01;;;;;;;0.00;0.00;;;;;;;15.30;95.94;100361.81;4948818;28;20042;-77
2023/06/29 04:21:26;;;;;;;0.00;0.00;;;;;;;15.36;95.79;100374.38;4988902;28;20073;-77
2023/06/29 04:23:52;;;;;;;0.00;0.00;;;;;;;15.22;95.53;100348.75;4976437;28;20110;-76
2023/06/29 04:26:21;;;;;;;0.00;0.00;;;;;;;15.23;95.47;100355.88;4969560;28;20400;-77
2023/06/29 04:28:46;;;;;;;0.00;0.00;;;;;;;15.29;95.18;100372.03;4973882;28;20026;-76
2023/06/29 04:31:12;;;;;;;0.00;0.00;;;;;;;15.32;95.14;100382.44;4953508;28;20402;-76
2023/06/29 04:33:38;;;;;;;0.00;0.00;;;;;;;15.23;95.24;100372.38;4992186;28;20112;-77
2023/06/29 04:36:04;;;;;;;0.00;0.00;;;;;;;15.29;95.11;100380.28;4981741;28;20161;-77
2023/06/29 04:38:29;;;;;;;0.00;0.00;;;;;;;15.22;95.11;100365.25;4978009;28;20384;-77
2023/06/29 04:41:04;;;;;;;0.00;0.00;;;;;;;15.29;94.89;100382.25;4995111;28;20037;-78
2023/06/29 04:43:32;;;;;;;0.00;0.00;;;;;;;15.36;95.26;100388.16;4975054;28;20063;-78
2023/06/29 04:46:00;;;;;;;0.00;0.00;;;;;;;15.38;95.11;100380.44;4985783;28;20026;-77
2023/06/29 04:48:32;;;;;;;0.00;0.00;;;;;;;15.39;94.54;100382.09;4966897;28;20507;-77
2023/06/29 04:51:05;;;;;;;0.00;0.00;;;;;;;15.34;94.88;100387.66;4971663;28;20056;-77
2023/06/29 04:53:34;;;;;;;0.00;0.00;;;;;;;15.43;94.50;100388.59;4977188;28;20038;-76
2023/06/29 04:56:02;;;;;;;0.00;0.00;;;;;;;15.31;94.35;100372.53;5015258;28;20025;-77
2023/06/29 04:58:28;;;;;;;0.00;0.00;;;;;;;15.36;94.07;100383.50;4992981;28;20037;-79
2023/06/29 05:00:56;;;;;;;0.00;0.00;;;;;;;15.42;93.76;100400.75;5008203;28;20530;-78
2023/06/29 05:03:24;;;;;;;0.00;0.00;;;;;;;15.35;93.13;100392.06;5007240;28;20729;-78
2023/06/29 05:05:49;;;;;;;0.00;0.00;;;;;;;15.44;92.84;100405.97;4995878;28;20030;-77
2023/06/29 05:08:15;;;;;;;0.00;0.00;;;;;;;15.37;92.82;100400.81;5013637;28;20394;-77
2023/06/29 05:10:40;;;;;;;0.00;0.00;;;;;;;15.34;91.80;100396.72;5005378;28;20461;-78
2023/06/29 05:13:05;;;;;;;0.00;0.00;;;;;;;15.37;91.16;100403.59;5003040;28;20029;-77
2023/06/29 05:15:47;;;;;;;0.00;0.00;;;;;;;15.31;89.91;100391.00;5006475;28;20036;-78
2023/06/29 06:03:33;;;;;;;0.00;0.00;;;;;;;15.42;87.45;100409.03;4971244;28;20060;-79
2023/06/29 06:05:58;;;;;;;0.00;0.00;;;;;;;15.26;87.51;100402.94;4990735;28;20117;-82
2023/06/29 06:08:44;;;;;;;0.00;0.00;;;;;;;15.33;87.93;100419.91;5014712;28;20030;-82
2023/06/29 06:11:12;;;;;;;0.00;0.00;;;;;;;15.20;87.39;100390.34;4993894;28;20037;-81
2023/06/29 06:13:42;;;;;;;0.00;0.00;;;;;;;15.33;87.79;100399.78;5042017;28;20022;-78
2023/06/29 06:16:08;;;;;;;0.00;0.00;;;;;;;15.34;87.75;100426.22;5005935;28;20488;-79
2023/06/29 06:18:42;;;;;;;0.00;0.00;;;;;;;15.21;88.49;100418.72;5009221;28;20033;-79
2023/06/29 06:21:10;;;;;;;0.00;0.00;;;;;;;15.09;88.67;100417.22;5018873;28;20014;-80
2023/06/29 06:23:35;;;;;;;0.00;0.00;;;;;;;15.05;88.86;100421.66;5008039;28;20026;-79
2023/06/29 06:26:01;;;;;;;0.00;0.00;;;;;;;15.13;89.23;100431.22;5015042;28;20021;-79
2023/06/29 06:28:28;;;;;;;0.00;0.00;;;;;;;15.21;89.66;100419.53;4996912;28;20034;-80
2023/06/29 06:30:54;;;;;;;0.00;0.00;;;;;;;15.46;89.48;100443.16;5020472;28;20760;-80
2023/06/29 06:33:26;;;;;;;0.00;0.00;;;;;;;15.96;89.10;100450.09;5008574;28;20029;-80
2023/06/29 06:35:52;;;;;;;0.00;0.00;;;;;;;16.52;87.38;100428.97;4992291;28;20435;-80
2023/06/29 06:38:17;;;;;;;0.00;0.00;;;;;;;16.74;86.05;100431.81;5017863;28;20022;-80
2023/06/29 06:40:43;;;;;;;0.00;0.00;;;;;;;17.24;85.10;100455.94;5039342;28;20041;-78
2023/06/29 06:43:18;;;;;;;0.00;0.00;;;;;;;17.43;83.73;100454.97;5020227;28;20044;-80
2023/06/29 06:45:46;;;;;;;0.00;0.00;;;;;;;17.34;82.88;100448.53;5022682;28;20108;-78
2023/06/29 06:48:21;;;;;;;;;;;;;;;;;;;;;
2023/06/29 06:50:47;;;;;;;0.00;0.00;;;;;;;17.44;82.84;100453.84;4990559;28;20369;-79
2023/06/29 06:53:13;;;;;;;0.00;0.00;;;;;;;17.99;82.08;100463.06;5008038;28;20112;-79
2023/06/29 06:55:38;;;;;;;0.00;0.00;;;;;;;18.46;79.96;100460.75;5019331;28;20443;-79
2023/06/29 06:58:04;;;;;;;0.00;0.00;;;;;;;18.67;78.00;100449.91;4991454;28;20053;-77
2023/06/29 07:00:34;;;;;;;0.00;0.00;;;;;;;18.82;76.97;100463.34;5035298;28;20117;-80
2023/06/29 07:02:59;;;;;;;0.00;0.00;;;;;;;18.80;76.09;100462.81;5004078;28;20026;-79
2023/06/29 07:05:27;;;;;;;0.00;0.00;;;;;;;18.89;75.94;100475.94;5002896;28;20045;-84
2023/06/29 07:07:55;;;;;;;0.00;0.00;;;;;;;18.82;75.82;100457.78;5028435;28;20026;-78
2023/06/29 07:10:20;;;;;;;0.00;0.00;;;;;;;18.93;74.96;100463.88;4996299;28;20407;-80
2023/06/29 07:12:46;;;;;;;0.00;0.00;;;;;;;18.83;74.30;100445.56;4978430;28;20029;-80
2023/06/29 07:15:12;;;;;;;0.00;0.00;;;;;;;19.05;73.91;100463.25;4997475;28;20034;-81
2023/06/29 07:17:39;;;;;;;0.00;0.00;;;;;;;19.00;73.99;100447.59;5003313;28;20113;-80
2023/06/29 07:20:25;;;;;;;0.00;0.00;;;;;;;19.18;73.41;100464.28;5002892;28;20156;-79
2023/06/29 07:22:51;;;;;;;0.00;0.00;;;;;;;19.42;73.00;100474.91;5031702;28;20033;-78
2023/06/29 07:25:18;;;;;;;0.00;0.00;;;;;;;19.73;72.07;100473.09;5030015;28;20460;-79
2023/06/29 07:27:45;;;;;;;0.00;0.00;;;;;;;19.98;70.76;100463.97;5003900;28;21865;-79
2023/06/29 07:30:10;;;;;;;0.00;0.00;;;;;;;20.21;70.23;100449.91;4993610;28;20069;-80
2023/06/29 07:32:38;;;;;;;0.00;0.00;;;;;;;20.48;68.91;100478.41;5008842;28;20069;-80
2023/06/29 07:35:13;;;;;;;0.00;0.00;;;;;;;20.76;67.86;100481.59;5005498;28;20200;-80
2023/06/29 07:37:38;;;;;;;0.00;0.00;;;;;;;20.91;66.60;100474.69;5041883;28;20117;-80
2023/06/29 07:40:05;;;;;;;0.00;0.00;;;;;;;21.13;66.17;100490.25;4994336;28;20534;-80
2023/06/29 07:42:42;;;;;;;0.00;0.00;;;;;;;21.09;65.51;100467.84;4992189;28;20396;-79
2023/06/29 07:45:08;;;;;;;0.00;0.00;;;;;;;21.24;64.68;100479.53;5023878;28;20022;-80
2023/06/29 07:47:33;;;;;;;0.00;0.00;;;;;;;21.60;64.64;100486.53;5018230;28;20017;-80
2023/06/29 07:49:59;;;;;;;0.00;0.00;;;;;;;21.88;63.20;100481.19;5021218;28;20369;-79
2023/06/29 07:56:49;;;;;;;;;;;;;;;;;;;;;
2023/06/29 07:59:30;;;;;;;0.00;0.00;;;;;;;21.93;60.26;100488.53;4938505;28;20057;-79
2023/06/29 08:02:03;;;;;;;0.00;0.00;;;;;;;21.78;59.96;100462.94;4949197;28;20066;-81
2023/06/29 08:04:29;;;;;;;0.00;0.00;;;;;;;21.93;59.70;100477.38;4939680;28;20061;-79
2023/06/29 08:06:54;;;;;;;0.00;0.00;;;;;;;21.89;59.67;100448.59;5013017;28;20038;-81
2023/06/29 08:09:22;;;;;;;0.00;0.00;;;;;;;22.40;58.97;100477.13;5006108;28;20026;-80
2023/06/29 08:11:48;;;;;;;0.00;0.00;;;;;;;22.75;57.73;100484.22;4993067;28;20099;-79
2023/06/29 08:14:14;;;;;;;0.00;0.00;;;;;;;23.31;57.17;100494.81;5022869;28;20504;-79
2023/06/29 08:16:39;;;;;;;0.00;0.00;;;;;;;23.70;56.08;100484.03;4992820;28;20053;-80
2023/06/29 08:19:04;;;;;;;0.00;0.00;;;;;;;23.81;54.91;100473.97;4975106;28;20121;-78
2023/06/29 08:21:30;;;;;;;0.00;0.00;;;;;;;23.90;54.14;100498.97;5030524;28;20033;-79
2023/06/29 08:23:55;;;;;;;0.00;0.00;;;;;;;23.47;54.27;100492.13;4998094;28;20030;-79
2023/06/29 08:26:21;;;;;;;0.00;0.00;;;;;;;23.34;54.64;100494.13;5049060;28;20045;-79
2023/06/29 08:28:49;;;;;;;0.00;0.00;;;;;;;23.50;54.84;100485.84;5015650;28;20046;-77
2023/06/29 08:31:14;;;;;;;0.00;0.00;;;;;;;23.84;55.11;100506.75;5010464;28;20042;-80
2023/06/29 08:33:39;;;;;;;0.00;0.00;;;;;;;24.17;53.20;100502.94;5045277;28;20026;-80
2023/06/29 08:36:06;;;;;;;0.00;0.00;;;;;;;24.16;52.07;100495.72;5037334;28;20038;-81
2023/06/29 08:38:36;;;;;;;0.00;0.00;;;;;;;24.63;52.03;100494.19;4964398;28;20358;-79
2023/06/29 08:41:07;;;;;;;0.00;0.00;;;;;;;25.02;50.83;100507.53;5023512;28;20447;-80
2023/06/29 08:43:32;;;;;;;0.00;0.00;;;;;;;25.25;50.07;100519.69;5039052;28;20687;-80
2023/06/29 08:45:58;;;;;;;0.00;0.00;;;;;;;24.85;50.22;100478.78;5006391;28;20041;-80
2023/06/29 08:48:24;;;;;;;0.00;0.00;;;;;;;24.83;50.18;100500.69;4996416;28;20034;-78
2023/06/29 08:51:01;;;;;;;0.00;0.00;;;;;;;24.75;49.23;100515.69;4987677;28;20125;-79
2023/06/29 08:53:27;;;;;;;0.00;0.00;;;;;;;24.65;49.18;100507.81;5032514;28;20112;-83
2023/06/29 08:55:53;;;;;;;0.00;0.00;;;;;;;24.68;49.18;100504.31;5030103;28;20120;-82
2023/06/29 08:58:22;;;;;;;0.00;0.00;;;;;;;25.08;48.45;100506.09;5001598;28;20531;-84
2023/06/29 09:00:50;;;;;;;0.00;0.00;;;;;;;25.42;47.71;100510.13;5000317;28;20029;-85
2023/06/29 09:03:17;;;;;;;0.00;0.00;;;;;;;26.02;47.18;100525.81;5022111;28;20104;-83
2023/06/29 09:05:45;;;;;;;0.00;0.00;;;;;;;26.10;46.71;100512.75;5019583;28;20076;-83
2023/06/29 09:08:13;;;;;;;0.00;0.00;;;;;;;26.11;46.66;100522.78;5006078;28;20400;-78
2023/06/29 09:10:46;;;;;;;0.00;0.00;;;;;;;25.90;46.03;100506.31;5002430;28;20021;-79
2023/06/29 09:13:12;;;;;;;0.00;0.00;;;;;;;25.72;46.90;100494.75;5001773;28;20034;-79
2023/06/29 09:15:39;;;;;;;0.00;0.00;;;;;;;25.71;46.55;100512.72;5004656;28;21472;-79
2023/06/29 09:18:05;;;;;;;0.00;0.00;;;;;;;25.66;46.89;100524.22;5007599;28;20030;-79
2023/06/29 09:20:35;;;;;;;0.00;0.00;;;;;;;25.74;46.92;100515.63;4987188;28;20456;-78
2023/06/29 09:23:04;;;;;;;0.00;0.00;;;;;;;25.95;46.71;100520.84;5001409;28;20030;-77
2023/06/29 09:25:32;;;;;;;0.00;0.00;;;;;;;25.99;46.43;100514.50;5008572;28;20026;-78
2023/06/29 09:28:05;;;;;;;0.00;0.00;;;;;;;26.04;45.82;100522.66;5014517;28;20034;-79
2023/06/29 09:30:37;;;;;;;0.00;0.00;;;;;;;26.08;45.05;100520.72;5008538;28;20373;-77
2023/06/29 09:33:14;;;;;;;0.00;0.00;;;;;;;25.95;44.53;100503.22;4995406;28;20519;-78
2023/06/29 09:35:46;;;;;;;0.00;0.00;;;;;;;26.14;44.72;100516.44;5015179;28;20545;-78
2023/06/29 09:38:18;;;;;;;0.00;0.00;;;;;;;26.31;44.21;100509.53;5036293;28;20068;-80
2023/06/29 09:40:53;;;;;;;0.00;0.00;;;;;;;26.72;43.16;100523.13;5023243;28;20034;-79
2023/06/29 09:43:33;;;;;;;0.00;0.00;;;;;;;26.93;42.89;100522.69;5002936;28;20041;-78
2023/06/29 09:46:08;;;;;;;0.00;0.00;;;;;;;27.45;41.71;100532.34;4997098;28;20121;-79
2023/06/29 09:48:43;;;;;;;0.00;0.00;;;;;;;27.55;41.66;100519.63;5000780;28;20057;-78
2023/06/29 09:51:09;;;;;;;0.00;0.00;;;;;;;27.31;41.76;100516.06;4993835;28;20392;-79
2023/06/29 09:53:34;;;;;;;0.00;0.00;;;;;;;27.21;41.72;100516.72;5002748;28;20116;-79
2023/06/29 09:56:02;;;;;;;0.00;0.00;;;;;;;27.65;41.49;100512.56;4990341;28;20045;-79
2023/06/29 09:58:29;;;;;;;0.00;0.00;;;;;;;28.06;40.31;100537.19;5026012;28;20033;-79
2023/06/29 10:00:58;;;;;;;0.00;0.00;;;;;;;28.18;40.21;100512.44;5001782;28;20029;-79
2023/06/29 10:03:26;;;;;;;0.00;0.00;;;;;;;28.44;39.83;100526.75;5023466;28;20057;-79
2023/06/29 10:05:56;;;;;;;0.00;0.00;;;;;;;28.31;39.09;100526.22;4983962;28;20026;-79
2023/06/29 10:08:24;;;;;;;0.00;0.00;;;;;;;27.90;38.99;100526.91;5010551;28;20024;-78
2023/06/29 10:10:55;;;;;;;0.00;0.00;;;;;;;27.96;38.44;100527.38;5003190;28;20038;-79
2023/06/29 10:13:24;;;;;;;0.00;0.00;;;;;;;28.98;37.82;100525.25;5008819;28;20021;-80
2023/06/29 10:15:53;;;;;;;0.00;0.00;;;;;;;30.52;33.37;100530.09;5002423;28;21660;-80
2023/06/29 10:18:29;;;;;;;0.00;0.00;;;;;;;32.23;31.95;100531.44;5040106;28;20022;-79
2023/06/29 10:20:55;;;;;;;0.00;0.00;;;;;;;34.41;29.30;100532.59;5002935;28;20060;-81
2023/06/29 10:23:22;;;;;;;0.00;0.00;;;;;;;35.98;27.15;100541.59;5006918;28;20026;-80
2023/06/29 10:25:49;;;;;;;0.00;0.00;;;;;;;37.98;24.02;100533.31;5002452;28;20052;-80
2023/06/29 10:28:16;;;;;;;0.00;0.00;;;;;;;38.65;23.20;100532.44;5007423;28;20030;-80
2023/06/29 10:30:46;;;;;;;0.00;0.00;;;;;;;38.61;23.28;100528.94;4996605;28;20026;-79
2023/06/29 10:33:12;;;;;;;0.00;0.00;;;;;;;40.12;22.75;100529.31;5020883;28;20022;-78
2023/06/29 10:35:38;;;;;;;0.00;0.00;;;;;;;39.69;23.61;100528.09;5006862;28;20060;-79
2023/06/29 10:38:18;;;;;;;0.00;0.00;;;;;;;40.37;22.31;100524.63;5003774;28;20117;-78
2023/06/29 10:40:49;;;;;;;0.00;0.00;;;;;;;42.24;20.52;100520.59;5025188;28;20083;-80
2023/06/29 10:43:14;;;;;;;0.00;0.00;;;;;;;43.28;19.45;100526.03;5003411;28;20030;-79
2023/06/29 10:45:40;;;;;;;0.00;0.00;;;;;;;42.42;18.18;100520.50;5025155;28;20751;-78
2023/06/29 10:48:13;;;;;;;0.00;0.00;;;;;;;39.78;20.65;100504.44;5004239;28;20029;-79
2023/06/29 10:50:41;;;;;;;0.00;0.00;;;;;;;40.14;20.50;100518.19;5000390;28;20375;-80
2023/06/29 10:53:11;;;;;;;0.00;0.00;;;;;;;41.80;18.60;100516.88;5040037;28;20060;-79
2023/06/29 10:55:40;;;;;;;0.00;0.00;;;;;;;42.51;19.02;100534.84;5038667;28;20033;-79
2023/06/29 10:58:23;;;;;;;0.00;0.00;;;;;;;43.41;18.18;100529.44;5025098;28;20026;-79
2023/06/29 11:00:51;;;;;;;0.00;0.00;;;;;;;44.56;15.77;100534.59;5022323;28;20033;-79
2023/06/29 11:03:20;;;;;;;0.00;0.00;;;;;;;45.02;16.74;100535.22;5007570;28;20041;-79
2023/06/29 11:05:54;;;;;;;0.00;0.00;;;;;;;46.79;15.60;100533.47;5022444;28;20033;-78
2023/06/29 11:08:21;;;;;;;0.00;0.00;;;;;;;48.13;14.88;100519.06;5010691;28;20473;-78
2023/06/29 11:10:47;;;;;;;0.00;0.00;;;;;;;47.93;14.89;100520.91;4999673;28;20033;-80
2023/06/29 11:16:31;;;;;;;;;;;;;;;;;;;;;
2023/06/29 11:19:15;;;;;;;;;;;;;;;;;;;;;
2023/06/29 11:21:43;;;;;;;0.00;0.00;;;;;;;36.62;22.34;100519.41;5001336;28;20447;-80
2023/06/29 11:24:58;;;;;;;0.00;0.00;;;;;;;37.87;22.11;100477.38;5007321;28;20052;-80
2023/06/29 11:28:04;;;;;;;0.00;0.00;;;;;;;42.63;18.22;100494.88;4990771;28;21244;-80
2023/06/29 11:30:34;;;;;;;0.00;0.00;;;;;;;44.66;16.18;100497.81;5020492;28;20026;-79
2023/06/29 11:33:10;;;;;;;0.00;0.00;;;;;;;46.31;14.89;100515.56;5001499;28;20118;-81
2023/06/29 11:35:40;;;;;;;0.00;0.00;;;;;;;44.61;15.46;100512.91;5007002;28;20048;-80
2023/06/29 11:38:06;;;;;;;0.00;0.00;;;;;;;46.97;14.46;100524.38;5012899;28;20026;-80
2023/06/29 11:40:32;;;;;;;0.00;0.00;;;;;;;48.85;13.37;100519.44;5003593;28;20033;-82
2023/06/29 11:43:05;;;;;;;0.00;0.00;;;;;;;50.61;11.89;100495.66;5032723;28;20034;-81
2023/06/29 11:45:33;;;;;;;0.00;0.00;;;;;;;51.50;11.25;100503.75;5005782;28;20480;-82
2023/06/29 11:48:02;;;;;;;0.00;0.00;;;;;;;50.13;12.28;100510.44;5022206;28;20033;-80
2023/06/29 11:50:36;;;;;;;0.00;0.00;;;;;;;45.94;13.30;100499.00;5014794;28;20033;-81
2023/06/29 11:53:06;;;;;;;0.00;0.00;;;;;;;45.95;14.76;100494.78;4997196;28;20030;-81
2023/06/29 11:55:32;;;;;;;0.00;0.00;;;;;;;48.55;13.20;100493.97;4997327;28;20030;-81
2023/06/29 11:58:01;;;;;;;0.00;0.00;;;;;;;47.70;13.18;100491.13;5004790;28;20029;-80
2023/06/29 12:00:32;;;;;;;0.00;0.00;;;;;;;45.50;13.98;100482.81;5000023;28;20042;-79
2023/06/29 12:03:10;;;;;;;0.00;0.00;;;;;;;43.02;15.62;100480.56;4996233;28;20378;-81
2023/06/29 12:05:41;;;;;;;0.00;0.00;;;;;;;42.01;16.59;100477.75;5005536;28;20073;-78
2023/06/29 12:08:30;;;;;;;;;;;;;;;;;;;;;
2023/06/29 12:11:03;;;;;;;0.00;0.00;;;;;;;45.53;14.70;100493.34;4988283;28;20042;-80
2023/06/29 12:13:28;;;;;;;;;;;;;;;45.28;14.55;100494.91;5034817;28;20778;-80
2023/06/29 12:16:06;;;;;;;0.00;0.00;;;;;;;46.16;13.82;100486.00;5004156;28;19913;-79
2023/06/29 12:18:40;;;;;;;0.00;0.00;;;;;;;49.35;12.37;100506.03;5007343;28;20076;-80
2023/06/29 12:21:09;;;;;;;0.00;0.00;;;;;;;51.96;11.08;100492.13;5019788;28;20038;-80
2023/06/29 12:23:37;;;;;;;0.00;0.00;;;;;;;50.15;11.57;100483.75;4996695;28;20065;-80
2023/06/29 12:26:02;;;;;;;0.00;0.00;;;;;;;46.85;13.12;100482.22;5015967;28;20164;-80
2023/06/29 12:35:29;;;;;;;0.00;0.00;;;;;;;48.74;11.32;100463.03;5005118;28;20029;-80